Strona główna
METAR-TAF:

METAR-TAF

Lotnisko :

Hagerstown, Maryland, Stany Zjednoczone

Szerokość geograficzna: 39-42-21N, Długość geograficzna: 077-43-48W, wysokość: 214 m

Aktualna obserwacja pogody

Raport powstał 1 godzina i 13 minut temu, godzina 13:53 UTC
Wiatr 6 kt od południowo-południowy wschód
Temperatura 21°C
Wilgotność 56%
Ciśnienie 1022 hPa
Widzialność: 16.1 km
Przerywane chmury na wysokości 5500 ft

METAR: KHGR 251353Z 15006KT 10SM BKN055 21/12 A3018 RMK AO2 SLP227 T02110122

czas: 11:06 (15:06 UTC)


TAF: brakujący

Obserwacja i prognoza pogody dla ponad 4000 lotnisk (raport METAR i TAF).

Dostępne stacje oznaczono żółtymi i czerwonymi punktami na mapie.

Najedź kursorem aby zobaczyć nazwę stacji.

Kliknij aby zobaczyć obserwacje i prognozy pogody.

Aby zmienić mapę: kliknij na zielony przycisk z czarnym krzyżykiem, aby powiększyć; na zielony przycisk z myślnikiem, aby pomniejszyć; na zielone strzałki, aby przejść do map sąsiednich.


METAR-TAF: